Time;durP1;ratioP1;P1;durP2;ratioP2;P2;SDS_P1;SDS_P2;PMS_P1;PMS_P2;Temp;Humidity;BMP_temperature;BMP_pressure;BME280_temperature;BME280_humidity;BME280_pressure;Samples;Min_cycle;Max_cycle;Signal;HPM_P1;HPM_P2
2021/10/12 00:00:13;;;;;;;15.25;1.65;;;;;;;;;;5049170;28;20083;-85
2021/10/12 00:02:40;;;;;;;16.70;1.88;;;;;;;;;;5048185;28;20051;-85
2021/10/12 00:05:08;;;;;;;12.43;1.65;;;;;;;;;;5049645;28;20492;-84
2021/10/12 00:07:35;;;;;;;18.17;2.08;;;;;;;;;;5060388;28;20094;-84
2021/10/12 00:10:03;;;;;;;13.60;2.25;;;;;;;;;;5059113;28;20179;-84
2021/10/12 00:12:30;;;;;;;14.55;1.75;;;;;;;;;;5060942;28;20464;-84
2021/10/12 00:15:00;;;;;;;8.68;1.75;;;;;;;;;;5069456;28;20102;-84
2021/10/12 00:17:27;;;;;;;15.95;1.92;;;;;;;;;;5059665;28;20103;-85
2021/10/12 00:19:54;;;;;;;19.92;1.50;;;;;;;;;;5049720;28;20540;-85
2021/10/12 00:22:21;;;;;;;19.58;1.65;;;;;;;;;;5049072;28;20120;-84
2021/10/12 00:24:48;;;;;;;14.43;1.50;;;;;;;;;;5048811;28;20087;-84
2021/10/12 00:27:16;;;;;;;15.35;2.13;;;;;;;;;;5049055;28;20068;-84
2021/10/12 00:29:43;;;;;;;22.45;2.13;;;;;;;;;;5049920;28;20128;-84
2021/10/12 00:32:10;;;;;;;12.98;1.92;;;;;;;;;;5048728;28;20799;-85
2021/10/12 00:34:37;;;;;;;13.43;1.42;;;;;;;;;;5048996;28;20049;-85
2021/10/12 00:37:04;;;;;;;14.93;2.03;;;;;;;;;;5061663;28;20143;-87
2021/10/12 00:39:31;;;;;;;16.48;2.10;;;;;;;;;;5062640;28;20095;-85
2021/10/12 00:41:58;;;;;;;13.98;1.48;;;;;;;;;;5061708;28;20795;-85
2021/10/12 00:44:26;;;;;;;14.52;2.53;;;;;;;;;;5073099;28;20091;-85
2021/10/12 00:46:53;;;;;;;14.40;1.60;;;;;;;;;;5056096;28;20544;-84
2021/10/12 00:49:20;;;;;;;17.10;2.53;;;;;;;;;;5051995;28;20096;-85
2021/10/12 00:51:48;;;;;;;8.93;1.52;;;;;;;;;;5052263;28;20124;-85
2021/10/12 00:54:15;;;;;;;15.40;1.70;;;;;;;;;;5051789;28;20084;-85
2021/10/12 00:56:42;;;;;;;15.93;1.73;;;;;;;;;;5050791;28;20060;-86
2021/10/12 00:59:09;;;;;;;12.50;1.50;;;;;;;;;;5051669;28;20103;-85
2021/10/12 01:01:37;;;;;;;8.50;2.03;;;;;;;;;;5052564;28;20103;-85
2021/10/12 01:04:05;;;;;;;9.45;1.75;;;;;;;;;;5053125;28;20048;-85
2021/10/12 01:06:32;;;;;;;16.73;1.98;;;;;;;;;;5057238;28;20128;-85
2021/10/12 01:08:59;;;;;;;28.83;2.03;;;;;;;;;;5062742;28;20443;-85
2021/10/12 01:11:27;;;;;;;11.70;2.05;;;;;;;;;;5051601;28;20084;-85
2021/10/12 01:13:54;;;;;;;6.43;1.60;;;;;;;;;;5052172;28;20095;-85
2021/10/12 01:16:21;;;;;;;15.45;1.77;;;;;;;;;;5052865;28;20091;-85
2021/10/12 01:18:56;;;;;;;16.65;3.38;;;;;;;;;;5051972;28;20053;-85
2021/10/12 01:21:24;;;;;;;18.23;1.70;;;;;;;;;;5052185;28;20095;-85
2021/10/12 01:23:51;;;;;;;18.17;2.30;;;;;;;;;;5052817;28;20088;-85
2021/10/12 01:26:19;;;;;;;18.38;2.05;;;;;;;;;;5053810;28;20911;-86
2021/10/12 01:28:46;;;;;;;18.02;2.85;;;;;;;;;;5033554;28;20132;-85
2021/10/12 01:31:22;;;;;;;15.55;2.30;;;;;;;;;;5046407;28;20084;-84
2021/10/12 01:33:50;;;;;;;20.83;1.92;;;;;;;;;;5051414;28;20060;-85
2021/10/12 01:36:17;;;;;;;15.27;2.15;;;;;;;;;;5058033;28;20398;-84
2021/10/12 01:38:44;;;;;;;16.27;2.08;;;;;;;;;;5061367;28;20087;-85
2021/10/12 01:41:14;;;;;;;10.95;1.38;;;;;;;;;;5049565;28;20191;-85
2021/10/12 01:43:42;;;;;;;12.07;2.08;;;;;;;;;;5049627;28;20159;-83
2021/10/12 01:46:09;;;;;;;12.77;1.65;;;;;;;;;;5049607;28;20124;-84
2021/10/12 01:48:47;;;;;;;11.35;1.95;;;;;;;;;;5049729;28;20049;-84
2021/10/12 01:51:14;;;;;;;12.75;2.25;;;;;;;;;;5051091;28;20132;-85
2021/10/12 01:53:41;;;;;;;12.90;2.35;;;;;;;;;;5051066;28;20049;-85
2021/10/12 01:56:08;;;;;;;13.30;2.15;;;;;;;;;;5051490;28;20128;-85
2021/10/12 01:58:35;;;;;;;17.83;2.42;;;;;;;;;;5052339;28;20103;-85
2021/10/12 02:01:03;;;;;;;16.08;2.67;;;;;;;;;;5051125;28;20095;-84
2021/10/12 02:03:31;;;;;;;23.60;2.80;;;;;;;;;;5052503;28;20684;-85
2021/10/12 02:05:58;;;;;;;17.73;2.50;;;;;;;;;;5052253;28;20045;-85
2021/10/12 02:08:25;;;;;;;12.82;2.05;;;;;;;;;;5063339;28;20132;-85
2021/10/12 02:10:52;;;;;;;17.40;2.90;;;;;;;;;;5053054;28;20049;-86
2021/10/12 02:13:36;;;;;;;17.67;3.00;;;;;;;;;;5070690;28;20501;-85
2021/10/12 02:16:03;;;;;;;17.52;3.80;;;;;;;;;;5052590;28;20128;-84
2021/10/12 02:18:31;;;;;;;21.63;3.53;;;;;;;;;;5050902;28;20048;-87
2021/10/12 02:20:58;;;;;;;18.67;3.53;;;;;;;;;;5050875;28;20105;-85
2021/10/12 02:23:27;;;;;;;13.88;3.05;;;;;;;;;;5051125;28;20055;-85
2021/10/12 02:25:54;;;;;;;23.48;3.55;;;;;;;;;;5051088;28;20072;-85
2021/10/12 02:28:21;;;;;;;31.88;3.90;;;;;;;;;;5051976;28;20144;-85
2021/10/12 02:31:04;;;;;;;14.88;3.97;;;;;;;;;;5051299;28;20140;-86
2021/10/12 02:33:32;;;;;;;20.88;3.17;;;;;;;;;;5050755;28;20140;-85
2021/10/12 02:35:59;;;;;;;20.75;3.60;;;;;;;;;;5057935;28;20472;-85
2021/10/12 02:38:26;;;;;;;21.77;3.88;;;;;;;;;;5062262;28;20049;-85
2021/10/12 02:40:53;;;;;;;30.42;3.72;;;;;;;;;;5058929;28;20044;-85
2021/10/12 02:43:20;;;;;;;16.48;3.45;;;;;;;;;;5056398;28;20144;-84
2021/10/12 02:45:47;;;;;;;22.75;3.55;;;;;;;;;;5050273;28;20079;-85
2021/10/12 02:48:15;;;;;;;18.05;3.10;;;;;;;;;;5050460;28;20044;-85
2021/10/12 02:50:43;;;;;;;22.45;3.00;;;;;;;;;;5050153;28;20048;-85
2021/10/12 02:53:11;;;;;;;22.50;3.60;;;;;;;;;;5050878;28;20132;-85
2021/10/12 02:55:38;;;;;;;22.48;5.43;;;;;;;;;;5051773;28;20124;-85
2021/10/12 02:58:06;;;;;;;16.70;3.10;;;;;;;;;;5051321;28;20111;-85
2021/10/12 03:00:33;;;;;;;20.65;3.92;;;;;;;;;;5050624;28;20548;-85
2021/10/12 03:03:00;;;;;;;9.30;2.92;;;;;;;;;;5050099;28;20049;-85
2021/10/12 03:05:27;;;;;;;6.38;3.42;;;;;;;;;;5052032;28;20136;-85
2021/10/12 03:07:55;;;;;;;10.10;2.85;;;;;;;;;;5061284;28;20041;-85
2021/10/12 03:10:22;;;;;;;14.43;2.25;;;;;;;;;;5054430;28;20053;-84
2021/10/12 03:12:51;;;;;;;19.30;2.60;;;;;;;;;;5063021;28;20105;-85
2021/10/12 03:15:18;;;;;;;19.48;3.13;;;;;;;;;;5049369;28;20052;-85
2021/10/12 03:17:45;;;;;;;8.15;2.13;;;;;;;;;;5050784;28;20059;-85
2021/10/12 03:20:12;;;;;;;20.00;2.85;;;;;;;;;;5048458;28;20718;-85
2021/10/12 03:22:40;;;;;;;12.75;2.70;;;;;;;;;;5049483;28;20132;-84
2021/10/12 03:25:07;;;;;;;15.00;2.47;;;;;;;;;;5051018;28;20084;-84
2021/10/12 03:27:34;;;;;;;16.27;3.00;;;;;;;;;;5049875;28;20072;-85
2021/10/12 03:30:01;;;;;;;18.00;3.70;;;;;;;;;;5050621;28;20096;-84
2021/10/12 03:32:29;;;;;;;20.00;3.17;;;;;;;;;;5049363;28;20123;-85
2021/10/12 03:34:56;;;;;;;20.33;4.75;;;;;;;;;;5049951;28;20132;-85
2021/10/12 03:37:23;;;;;;;20.77;4.68;;;;;;;;;;5060739;28;20786;-84
2021/10/12 03:39:51;;;;;;;15.95;5.03;;;;;;;;;;5058693;28;20901;-85
2021/10/12 03:42:18;;;;;;;21.77;5.35;;;;;;;;;;5051100;28;20710;-84
2021/10/12 03:44:45;;;;;;;21.88;5.47;;;;;;;;;;5049806;28;20092;-85
2021/10/12 03:47:13;;;;;;;16.75;4.53;;;;;;;;;;5049272;28;20444;-85
2021/10/12 03:49:40;;;;;;;22.83;5.72;;;;;;;;;;5049004;28;20457;-85
2021/10/12 03:52:07;;;;;;;23.15;5.10;;;;;;;;;;5050684;28;20044;-85
2021/10/12 03:54:34;;;;;;;12.82;4.80;;;;;;;;;;5049497;28;20105;-84
2021/10/12 03:57:02;;;;;;;20.27;4.70;;;;;;;;;;5049756;28;20088;-86
2021/10/12 03:59:29;;;;;;;24.52;5.00;;;;;;;;;;5049138;28;20088;-85
2021/10/12 04:01:56;;;;;;;16.02;5.35;;;;;;;;;;5050448;28;20094;-85
2021/10/12 04:04:23;;;;;;;15.23;4.35;;;;;;;;;;5049525;28;20065;-85
2021/10/12 04:06:51;;;;;;;20.33;5.03;;;;;;;;;;5057733;28;20099;-84
2021/10/12 04:09:18;;;;;;;19.42;4.43;;;;;;;;;;5062136;28;20085;-85
2021/10/12 04:11:45;;;;;;;21.95;4.68;;;;;;;;;;5054579;28;20052;-85
2021/10/12 04:14:17;;;;;;;9.57;4.13;;;;;;;;;;5064382;28;20514;-85
2021/10/12 04:16:44;;;;;;;14.52;3.88;;;;;;;;;;5051787;28;20113;-85
2021/10/12 04:19:12;;;;;;;18.17;4.78;;;;;;;;;;5034919;28;20130;-85
2021/10/12 04:21:39;;;;;;;14.88;4.10;;;;;;;;;;5048874;28;20047;-84
2021/10/12 04:24:07;;;;;;;12.48;3.80;;;;;;;;;;5053426;28;20797;-85
2021/10/12 04:26:34;;;;;;;18.08;5.30;;;;;;;;;;5053146;28;20068;-84
2021/10/12 04:29:03;;;;;;;31.55;4.50;;;;;;;;;;5052949;28;20051;-85
2021/10/12 04:31:30;;;;;;;19.70;5.05;;;;;;;;;;5055044;28;20052;-84
2021/10/12 04:34:10;;;;;;;20.17;4.50;;;;;;;;;;5062543;28;20076;-84
2021/10/12 04:36:38;;;;;;;19.10;4.28;;;;;;;;;;5062004;28;20083;-84
2021/10/12 04:39:14;;;;;;;11.18;3.35;;;;;;;;;;5053979;28;20084;-83
2021/10/12 04:41:41;;;;;;;11.63;3.53;;;;;;;;;;5071314;28;20146;-83
2021/10/12 04:44:10;;;;;;;12.23;3.67;;;;;;;;;;5069484;28;20072;-83
2021/10/12 04:46:40;;;;;;;14.68;3.67;;;;;;;;;;5054038;28;20148;-84
2021/10/12 04:49:07;;;;;;;10.63;3.55;;;;;;;;;;5039409;28;20053;-86
2021/10/12 04:51:35;;;;;;;9.32;2.92;;;;;;;;;;5052786;28;20133;-85
2021/10/12 04:54:02;;;;;;;14.52;3.25;;;;;;;;;;5054255;28;20334;-85
2021/10/12 04:56:33;;;;;;;9.68;3.00;;;;;;;;;;5052899;28;20059;-83
2021/10/12 04:59:00;;;;;;;11.63;2.60;;;;;;;;;;5052459;28;20049;-86
2021/10/12 05:01:28;;;;;;;12.43;2.40;;;;;;;;;;5052969;28;20041;-85
2021/10/12 05:03:55;;;;;;;17.48;2.58;;;;;;;;;;5054929;28;20115;-84
2021/10/12 05:06:23;;;;;;;8.98;3.00;;;;;;;;;;5058153;28;20057;-82
2021/10/12 05:08:50;;;;;;;11.10;2.80;;;;;;;;;;5054396;28;20044;-82
2021/10/12 05:11:17;;;;;;;10.80;2.50;;;;;;;;;;5058049;28;20041;-83
2021/10/12 05:13:45;;;;;;;6.43;2.40;;;;;;;;;;5059035;28;20045;-84
2021/10/12 05:16:13;;;;;;;11.65;3.30;;;;;;;;;;5053400;28;20459;-85
2021/10/12 05:18:43;;;;;;;11.27;2.10;;;;;;;;;;5052722;28;20044;-91
2021/10/12 05:21:11;;;;;;;7.85;2.15;;;;;;;;;;5053027;28;20406;-90
2021/10/12 05:23:39;;;;;;;11.10;3.17;;;;;;;;;;5054654;28;20099;-87
2021/10/12 05:26:11;;;;;;;6.53;1.90;;;;;;;;;;5054112;28;20049;-89
2021/10/12 05:28:39;;;;;;;15.57;3.05;;;;;;;;;;5052520;28;20751;-84
2021/10/12 05:31:06;;;;;;;7.47;2.38;;;;;;;;;;5054567;28;20448;-87
2021/10/12 05:33:33;;;;;;;9.75;2.47;;;;;;;;;;5062742;28;20132;-78
2021/10/12 05:36:01;;;;;;;10.55;1.55;;;;;;;;;;5055123;28;20099;-80
2021/10/12 05:38:28;;;;;;;5.82;2.10;;;;;;;;;;5052820;28;20449;-83
2021/10/12 05:40:59;;;;;;;8.18;1.63;;;;;;;;;;5057664;28;20041;-84
2021/10/12 05:43:26;;;;;;;8.82;2.60;;;;;;;;;;5069755;28;20052;-82
2021/10/12 05:45:53;;;;;;;10.70;1.88;;;;;;;;;;5071124;28;20278;-81
2021/10/12 05:48:20;;;;;;;8.60;2.38;;;;;;;;;;5051765;28;20080;-82
2021/10/12 05:50:48;;;;;;;6.57;2.53;;;;;;;;;;5053056;28;20049;-82
2021/10/12 05:53:45;;;;;;;9.02;2.45;;;;;;;;;;5052670;28;20103;-82
2021/10/12 05:56:16;;;;;;;4.55;1.38;;;;;;;;;;5052666;28;20091;-82
2021/10/12 05:58:46;;;;;;;4.07;1.40;;;;;;;;;;5033049;28;20128;-82
2021/10/12 06:01:13;;;;;;;6.97;1.50;;;;;;;;;;5046957;28;20494;-82
2021/10/12 06:03:40;;;;;;;7.97;1.10;;;;;;;;;;5060031;28;20055;-81
2021/10/12 06:06:08;;;;;;;4.50;1.50;;;;;;;;;;5051492;28;20087;-81
2021/10/12 06:08:39;;;;;;;5.82;1.30;;;;;;;;;;5069552;28;20072;-82
2021/10/12 06:11:06;;;;;;;3.92;1.50;;;;;;;;;;5057872;28;20132;-81
2021/10/12 06:13:34;;;;;;;13.98;1.20;;;;;;;;;;5071160;28;20234;-81
2021/10/12 06:16:01;;;;;;;3.70;1.45;;;;;;;;;;5071793;28;20143;-81
2021/10/12 06:18:33;;;;;;;3.25;1.85;;;;;;;;;;5072592;28;20078;-82
2021/10/12 06:21:00;;;;;;;11.55;1.70;;;;;;;;;;5051413;28;20140;-81
2021/10/12 06:23:34;;;;;;;6.93;1.02;;;;;;;;;;5052261;28;20100;-81
2021/10/12 06:26:02;;;;;;;5.40;1.33;;;;;;;;;;5050972;28;20072;-81
2021/10/12 06:28:30;;;;;;;8.80;1.40;;;;;;;;;;5051043;28;20621;-82
2021/10/12 06:30:57;;;;;;;8.98;1.27;;;;;;;;;;5051265;28;20108;-81
2021/10/12 06:33:24;;;;;;;7.88;1.90;;;;;;;;;;5051174;28;20052;-81
2021/10/12 06:35:52;;;;;;;8.77;3.47;;;;;;;;;;5047665;28;20087;-82
2021/10/12 06:38:20;;;;;;;6.38;1.80;;;;;;;;;;5054264;28;20139;-82
2021/10/12 06:40:47;;;;;;;6.82;1.60;;;;;;;;;;5060306;28;20045;-81
2021/10/12 06:43:15;;;;;;;7.28;2.60;;;;;;;;;;5051175;28;20102;-81
2021/10/12 06:45:43;;;;;;;8.35;1.30;;;;;;;;;;5051550;28;20128;-81
2021/10/12 06:48:10;;;;;;;11.75;1.50;;;;;;;;;;5048641;28;20567;-81
2021/10/12 06:50:38;;;;;;;9.40;1.90;;;;;;;;;;5050566;28;20052;-81
2021/10/12 06:53:39;;;;;;;7.05;1.65;;;;;;;;;;5051100;28;20144;-81
2021/10/12 06:56:07;;;;;;;7.78;1.50;;;;;;;;;;5050413;28;20095;-83
2021/10/12 06:58:43;;;;;;;12.00;1.42;;;;;;;;;;5051725;28;20065;-81
2021/10/12 07:01:22;;;;;;;11.02;2.08;;;;;;;;;;5051672;28;20053;-82
2021/10/12 07:03:50;;;;;;;16.15;1.75;;;;;;;;;;5050127;28;20789;-81
2021/10/12 07:06:19;;;;;;;13.82;2.20;;;;;;;;;;5059148;28;20374;-82
2021/10/12 07:08:47;;;;;;;14.10;1.80;;;;;;;;;;5049796;28;20072;-82
2021/10/12 07:11:14;;;;;;;8.27;2.13;;;;;;;;;;5058868;28;20071;-81
2021/10/12 07:13:41;;;;;;;14.38;2.60;;;;;;;;;;5070680;28;20102;-82
2021/10/12 07:16:08;;;;;;;9.00;2.60;;;;;;;;;;5061179;28;20490;-82
2021/10/12 07:18:36;;;;;;;13.00;1.88;;;;;;;;;;5057628;28;20052;-82
2021/10/12 07:21:03;;;;;;;10.80;2.05;;;;;;;;;;5050737;28;20096;-82
2021/10/12 07:23:30;;;;;;;17.23;1.63;;;;;;;;;;5049899;28;20049;-82
2021/10/12 07:25:57;;;;;;;5.15;1.88;;;;;;;;;;5050752;28;20065;-82
2021/10/12 07:28:24;;;;;;;8.95;1.75;;;;;;;;;;5050703;28;20148;-82
2021/10/12 07:30:52;;;;;;;11.85;2.20;;;;;;;;;;5051091;28;20049;-82
2021/10/12 07:33:19;;;;;;;14.32;2.47;;;;;;;;;;5049162;28;20476;-82
2021/10/12 07:35:56;;;;;;;11.10;2.63;;;;;;;;;;5055309;28;20087;-82
2021/10/12 07:38:24;;;;;;;7.00;2.10;;;;;;;;;;5054725;28;20106;-82
2021/10/12 07:40:51;;;;;;;15.05;2.17;;;;;;;;;;5059107;28;20045;-82
2021/10/12 07:43:18;;;;;;;6.80;1.73;;;;;;;;;;5067089;28;20076;-82
2021/10/12 07:45:49;;;;;;;4.55;1.80;;;;;;;;;;5056402;28;20048;-85
2021/10/12 07:48:18;;;;;;;10.35;2.40;;;;;;;;;;5052818;28;20076;-84
2021/10/12 07:50:45;;;;;;;9.90;2.03;;;;;;;;;;5053754;28;20073;-84
2021/10/12 07:53:15;;;;;;;14.25;2.33;;;;;;;;;;5051871;28;20135;-84
2021/10/12 07:55:52;;;;;;;7.30;1.60;;;;;;;;;;5053174;28;20060;-84
2021/10/12 07:58:21;;;;;;;7.55;1.90;;;;;;;;;;5056171;28;20458;-82
2021/10/12 08:00:49;;;;;;;6.75;2.25;;;;;;;;;;5052955;28;20098;-82
2021/10/12 08:03:17;;;;;;;11.85;2.35;;;;;;;;;;5053271;28;20060;-82
2021/10/12 08:05:45;;;;;;;8.57;1.58;;;;;;;;;;5055359;28;20118;-81
2021/10/12 08:08:12;;;;;;;7.15;1.70;;;;;;;;;;5063064;28;20059;-81
2021/10/12 08:10:40;;;;;;;6.30;1.65;;;;;;;;;;5066807;28;20058;-81
2021/10/12 08:13:15;;;;;;;9.43;1.30;;;;;;;;;;5055313;28;20098;-82
2021/10/12 08:15:46;;;;;;;4.93;1.02;;;;;;;;;;5053075;28;20056;-82
2021/10/12 08:18:24;;;;;;;8.07;1.20;;;;;;;;;;5053182;28;20127;-84
2021/10/12 08:20:51;;;;;;;4.43;1.00;;;;;;;;;;5053260;28;20060;-81
2021/10/12 08:23:18;;;;;;;7.93;1.00;;;;;;;;;;5051763;28;20064;-81
2021/10/12 08:25:46;;;;;;;5.65;1.20;;;;;;;;;;5053889;28;20088;-81
2021/10/12 08:28:13;;;;;;;5.65;1.08;;;;;;;;;;5053559;28;20493;-80
2021/10/12 08:30:40;;;;;;;4.40;1.27;;;;;;;;;;5068615;28;20045;-81
2021/10/12 08:33:07;;;;;;;7.63;1.20;;;;;;;;;;5052649;28;20136;-81
2021/10/12 08:35:34;;;;;;;7.57;1.63;;;;;;;;;;5060571;28;20135;-81
2021/10/12 08:38:01;;;;;;;8.25;1.17;;;;;;;;;;5065639;28;20087;-81
2021/10/12 08:40:31;;;;;;;5.78;1.50;;;;;;;;;;5060158;28;20110;-81
2021/10/12 08:43:01;;;;;;;5.25;1.00;;;;;;;;;;5065301;28;20076;-81
2021/10/12 08:45:30;;;;;;;9.52;1.10;;;;;;;;;;5058667;28;20117;-81
2021/10/12 08:47:57;;;;;;;8.60;1.40;;;;;;;;;;5052209;28;20123;-81
2021/10/12 08:50:24;;;;;;;7.32;1.10;;;;;;;;;;5051768;28;20081;-81
2021/10/12 08:52:51;;;;;;;6.20;0.80;;;;;;;;;;5053473;28;20770;-81
2021/10/12 08:55:19;;;;;;;3.10;0.88;;;;;;;;;;5053378;28;20045;-81
2021/10/12 08:57:47;;;;;;;2.72;0.57;;;;;;;;;;5051540;28;20084;-81
2021/10/12 09:00:19;;;;;;;1.70;1.08;;;;;;;;;;5056737;28;20087;-81
2021/10/12 09:05:56;;;;;;;3.50;0.52;;;;;;;;;;5068391;28;20151;-81
2021/10/12 09:08:24;;;;;;;3.45;0.70;;;;;;;;;;5057646;28;20462;-81
2021/10/12 09:10:52;;;;;;;2.00;0.45;;;;;;;;;;5056721;28;20048;-82
2021/10/12 09:13:19;;;;;;;10.15;0.80;;;;;;;;;;5062602;28;20049;-81
2021/10/12 09:16:05;;;;;;;1.85;0.50;;;;;;;;;;5052406;28;20805;-81
2021/10/12 09:18:53;;;;;;;6.25;0.60;;;;;;;;;;5050958;28;20111;-80
2021/10/12 09:21:23;;;;;;;8.40;0.70;;;;;;;;;;5051605;28;20492;-80
2021/10/12 09:24:01;;;;;;;4.10;1.13;;;;;;;;;;5051998;28;20744;-81
2021/10/12 09:26:31;;;;;;;6.45;0.63;;;;;;;;;;5053238;28;20496;-82
2021/10/12 09:29:02;;;;;;;4.72;0.82;;;;;;;;;;5053073;28;20080;-81
2021/10/12 09:31:33;;;;;;;5.65;0.77;;;;;;;;;;5050941;28;20079;-81
2021/10/12 09:34:02;;;;;;;8.88;0.93;;;;;;;;;;5052783;28;20551;-82
2021/10/12 09:36:29;;;;;;;3.80;0.70;;;;;;;;;;5060067;28;20563;-82
2021/10/12 09:38:59;;;;;;;7.20;0.80;;;;;;;;;;5051972;28;20045;-82
2021/10/12 09:41:27;;;;;;;3.35;0.63;;;;;;;;;;5057670;28;20052;-82
2021/10/12 09:44:15;;;;;;;5.28;0.80;;;;;;;;;;5045946;28;20135;-80
2021/10/12 09:46:45;;;;;;;10.95;0.70;;;;;;;;;;5051089;28;20083;-82
2021/10/12 09:49:23;;;;;;;3.75;0.60;;;;;;;;;;5047834;28;20156;-81
2021/10/12 09:51:56;;;;;;;1.45;0.50;;;;;;;;;;5051658;28;20041;-82
2021/10/12 09:54:25;;;;;;;8.88;0.90;;;;;;;;;;5052263;28;20068;-82
2021/10/12 09:56:52;;;;;;;2.78;0.93;;;;;;;;;;5052099;28;20068;-82
2021/10/12 09:59:19;;;;;;;2.92;0.98;;;;;;;;;;5052815;28;20087;-81
2021/10/12 10:01:47;;;;;;;5.05;0.60;;;;;;;;;;5052866;28;20111;-82
2021/10/12 10:04:16;;;;;;;2.47;0.65;;;;;;;;;;5053170;28;20060;-82
2021/10/12 10:06:43;;;;;;;9.35;1.25;;;;;;;;;;5061817;28;20118;-81
2021/10/12 10:09:11;;;;;;;8.48;1.20;;;;;;;;;;5063371;28;20049;-81
2021/10/12 10:11:39;;;;;;;5.68;0.60;;;;;;;;;;5055948;28;20538;-82
2021/10/12 10:14:09;;;;;;;8.35;1.00;;;;;;;;;;5050167;28;20401;-81
2021/10/12 10:16:37;;;;;;;10.32;1.27;;;;;;;;;;5051823;28;20464;-82
2021/10/12 10:19:08;;;;;;;3.33;0.75;;;;;;;;;;5051292;28;20056;-81
2021/10/12 10:21:41;;;;;;;5.40;1.00;;;;;;;;;;5050062;28;20108;-81
2021/10/12 10:26:37;;;;;;;4.65;0.70;;;;;;;;;;5050705;28;20543;-82
2021/10/12 10:29:22;;;;;;;5.75;0.80;;;;;;;;;;5050548;28;20095;-82
2021/10/12 10:32:14;;;;;;;7.38;0.82;;;;;;;;;;5030720;28;20506;-82
2021/10/12 10:34:43;;;;;;;2.42;0.55;;;;;;;;;;5047392;28;20052;-82
2021/10/12 10:37:16;;;;;;;3.20;0.50;;;;;;;;;;5058458;28;20068;-82
2021/10/12 10:39:51;;;;;;;3.83;0.65;;;;;;;;;;5050806;28;20114;-82
2021/10/12 10:42:27;;;;;;;4.72;0.40;;;;;;;;;;5047857;28;20048;-82
2021/10/12 10:45:04;;;;;;;3.15;0.88;;;;;;;;;;5048717;28;20124;-82
2021/10/12 10:47:41;;;;;;;2.45;0.60;;;;;;;;;;5047561;28;20049;-82
2021/10/12 10:50:11;;;;;;;10.10;0.77;;;;;;;;;;5049756;28;20136;-81
2021/10/12 10:52:42;;;;;;;2.72;0.45;;;;;;;;;;5048245;28;20049;-81
2021/10/12 10:55:10;;;;;;;10.52;0.70;;;;;;;;;;5049026;28;20128;-81
2021/10/12 10:57:59;;;;;;;4.75;0.63;;;;;;;;;;5049551;28;20055;-81
2021/10/12 11:00:26;;;;;;;7.57;0.70;;;;;;;;;;5048631;28;20091;-82
2021/10/12 11:02:54;;;;;;;2.72;0.70;;;;;;;;;;5049709;28;20577;-81
2021/10/12 11:05:43;;;;;;;3.55;0.70;;;;;;;;;;5051625;28;20080;-81
2021/10/12 11:08:12;;;;;;;3.13;0.90;;;;;;;;;;5050542;28;20091;-81
2021/10/12 11:10:39;;;;;;;4.20;0.93;;;;;;;;;;5048747;28;20136;-81
2021/10/12 11:13:07;;;;;;;2.17;0.52;;;;;;;;;;5048979;28;20132;-80
2021/10/12 11:15:46;;;;;;;2.95;0.80;;;;;;;;;;5048842;28;20501;-81
2021/10/12 11:18:13;;;;;;;1.88;0.60;;;;;;;;;;5045441;28;20127;-81
2021/10/12 11:20:45;;;;;;;3.00;0.65;;;;;;;;;;5049305;28;20159;-81
2021/10/12 11:23:13;;;;;;;4.90;0.77;;;;;;;;;;5046895;28;20475;-81
2021/10/12 11:25:40;;;;;;;3.35;0.70;;;;;;;;;;5047649;28;20146;-81
2021/10/12 11:28:11;;;;;;;8.52;1.00;;;;;;;;;;5049105;28;20128;-81
2021/10/12 11:30:40;;;;;;;4.72;0.82;;;;;;;;;;5048570;28;20072;-81
2021/10/12 11:33:08;;;;;;;2.03;0.50;;;;;;;;;;5045876;28;20060;-81
2021/10/12 11:35:37;;;;;;;6.20;1.00;;;;;;;;;;5038872;28;20061;-82
2021/10/12 11:38:05;;;;;;;4.30;0.70;;;;;;;;;;5047948;28;20099;-85
2021/10/12 11:40:34;;;;;;;5.20;1.20;;;;;;;;;;5049131;28;20409;-82
2021/10/12 11:43:05;;;;;;;7.32;0.70;;;;;;;;;;5055912;28;20053;-80
2021/10/12 11:45:33;;;;;;;2.60;0.77;;;;;;;;;;5047849;28;20049;-81
2021/10/12 11:48:00;;;;;;;5.20;0.70;;;;;;;;;;5048984;28;20425;-82
2021/10/12 11:50:28;;;;;;;2.65;1.00;;;;;;;;;;5048741;28;20084;-81
2021/10/12 11:52:55;;;;;;;1.67;0.65;;;;;;;;;;5050057;28;20139;-82
2021/10/12 11:55:27;;;;;;;3.08;0.88;;;;;;;;;;5048597;28;20053;-82
2021/10/12 11:57:54;;;;;;;5.15;0.73;;;;;;;;;;5028734;28;20065;-82
2021/10/12 12:00:38;;;;;;;3.70;0.88;;;;;;;;;;5029927;28;20107;-80
2021/10/12 12:03:15;;;;;;;6.72;1.00;;;;;;;;;;5029928;28;20117;-82
2021/10/12 12:06:09;;;;;;;2.42;0.60;;;;;;;;;;5048455;28;20098;-82
2021/10/12 12:08:38;;;;;;;9.85;0.80;;;;;;;;;;5056674;28;20780;-84
2021/10/12 12:11:06;;;;;;;3.72;0.77;;;;;;;;;;5057145;28;20080;-83
2021/10/12 12:13:33;;;;;;;4.10;0.80;;;;;;;;;;5067905;28;20053;-81
2021/10/12 12:16:00;;;;;;;3.47;0.80;;;;;;;;;;5061283;28;20049;-81
2021/10/12 12:18:30;;;;;;;2.88;0.90;;;;;;;;;;5048483;28;20099;-81
2021/10/12 12:21:03;;;;;;;3.38;1.10;;;;;;;;;;5048893;28;20802;-82
2021/10/12 12:23:43;;;;;;;5.00;0.95;;;;;;;;;;5049385;28;20049;-81
2021/10/12 12:26:20;;;;;;;5.75;1.23;;;;;;;;;;5050918;28;20045;-81
2021/10/12 12:28:48;;;;;;;6.97;0.82;;;;;;;;;;5050558;28;20041;-83
2021/10/12 12:31:24;;;;;;;3.95;0.98;;;;;;;;;;5050654;28;20128;-82
2021/10/12 12:33:53;;;;;;;4.13;0.80;;;;;;;;;;5050014;28;20156;-81
2021/10/12 12:36:21;;;;;;;3.08;0.55;;;;;;;;;;5049699;28;20052;-80
2021/10/12 12:38:49;;;;;;;4.57;1.13;;;;;;;;;;5055383;28;20041;-81
2021/10/12 12:41:26;;;;;;;4.63;0.85;;;;;;;;;;5062140;28;20064;-80
2021/10/12 12:43:57;;;;;;;9.20;0.88;;;;;;;;;;5054742;28;20110;-81
2021/10/12 12:46:25;;;;;;;2.40;0.50;;;;;;;;;;5052641;28;20045;-81
2021/10/12 12:49:16;;;;;;;5.72;0.90;;;;;;;;;;5052610;28;20744;-83
2021/10/12 12:51:47;;;;;;;4.97;0.65;;;;;;;;;;5052843;28;20037;-80
2021/10/12 12:54:46;;;;;;;3.83;0.88;;;;;;;;;;5053577;28;20079;-85
2021/10/12 12:57:17;;;;;;;2.90;0.90;;;;;;;;;;5053416;28;20509;-84
2021/10/12 13:00:02;;;;;;;2.95;0.70;;;;;;;;;;5033317;28;20045;-85
2021/10/12 13:02:30;;;;;;;6.70;0.80;;;;;;;;;;5034178;28;20045;-86
2021/10/12 13:04:58;;;;;;;2.47;0.70;;;;;;;;;;5040942;28;20455;-85
2021/10/12 13:07:25;;;;;;;4.05;0.93;;;;;;;;;;5065842;28;20044;-81
2021/10/12 13:09:53;;;;;;;2.88;0.73;;;;;;;;;;5057224;28;20073;-81
2021/10/12 13:12:21;;;;;;;6.07;0.98;;;;;;;;;;5061958;28;20037;-84
2021/10/12 13:14:49;;;;;;;5.10;1.10;;;;;;;;;;5051338;28;20088;-81
2021/10/12 13:17:19;;;;;;;6.00;0.65;;;;;;;;;;5052138;28;20084;-80
2021/10/12 13:19:52;;;;;;;1.88;0.70;;;;;;;;;;5052268;28;20049;-81
2021/10/12 13:22:20;;;;;;;3.17;0.70;;;;;;;;;;5053760;28;20072;-82
2021/10/12 13:24:52;;;;;;;3.08;0.70;;;;;;;;;;5051612;28;20633;-83
2021/10/12 13:27:19;;;;;;;11.98;1.00;;;;;;;;;;5052555;28;20110;-82
2021/10/12 13:29:48;;;;;;;4.63;0.88;;;;;;;;;;5052868;28;20455;-82
2021/10/12 13:32:19;;;;;;;3.67;0.63;;;;;;;;;;5053414;28;20085;-82
2021/10/12 13:34:53;;;;;;;1.60;0.40;;;;;;;;;;5054295;28;20053;-82
2021/10/12 13:37:23;;;;;;;6.28;1.35;;;;;;;;;;5063211;28;20079;-82
2021/10/12 13:39:52;;;;;;;2.67;0.60;;;;;;;;;;5056310;28;20103;-83
2021/10/12 13:42:20;;;;;;;4.13;0.60;;;;;;;;;;5064998;28;20737;-82
2021/10/12 13:44:51;;;;;;;4.63;0.80;;;;;;;;;;5056220;28;20044;-81
2021/10/12 13:47:21;;;;;;;2.22;0.55;;;;;;;;;;5052820;28;20053;-83
2021/10/12 13:49:48;;;;;;;2.45;0.65;;;;;;;;;;5047090;28;20072;-81
2021/10/12 13:52:17;;;;;;;5.22;0.63;;;;;;;;;;5051045;28;20099;-79
2021/10/12 13:54:44;;;;;;;4.63;0.82;;;;;;;;;;5041599;28;20073;-80
2021/10/12 13:57:11;;;;;;;1.13;0.50;;;;;;;;;;5050599;28;20140;-79
2021/10/12 13:59:39;;;;;;;5.03;0.63;;;;;;;;;;5049875;28;20083;-79
2021/10/12 14:02:10;;;;;;;3.67;0.55;;;;;;;;;;5050129;28;20053;-80
2021/10/12 14:04:39;;;;;;;2.95;0.47;;;;;;;;;;5039893;28;20053;-79
2021/10/12 14:07:08;;;;;;;1.73;0.70;;;;;;;;;;5050906;28;20163;-79
2021/10/12 14:09:36;;;;;;;2.00;0.38;;;;;;;;;;5047683;28;20049;-80
2021/10/12 14:12:06;;;;;;;3.67;0.70;;;;;;;;;;5045651;28;20052;-76
2021/10/12 14:14:33;;;;;;;2.38;0.50;;;;;;;;;;5046540;28;20048;-77
2021/10/12 14:17:02;;;;;;;7.20;1.20;;;;;;;;;;5047953;28;20748;-77
2021/10/12 14:19:29;;;;;;;4.28;0.57;;;;;;;;;;5047020;28;20108;-77
2021/10/12 14:21:56;;;;;;;3.67;1.08;;;;;;;;;;5046691;28;20106;-76
2021/10/12 14:24:23;;;;;;;3.78;0.40;;;;;;;;;;5046494;28;20109;-77
2021/10/12 14:26:51;;;;;;;1.98;0.55;;;;;;;;;;5044000;28;20073;-75
2021/10/12 14:29:18;;;;;;;6.90;0.70;;;;;;;;;;5044940;28;20083;-75
2021/10/12 14:31:45;;;;;;;2.08;0.50;;;;;;;;;;5046988;28;20055;-77
2021/10/12 14:34:15;;;;;;;6.25;0.70;;;;;;;;;;5047112;28;20052;-79
2021/10/12 14:36:43;;;;;;;1.40;0.40;;;;;;;;;;5047836;28;20135;-79
2021/10/12 14:39:12;;;;;;;3.08;0.60;;;;;;;;;;5047220;28;20172;-79
2021/10/12 14:41:39;;;;;;;0.77;0.38;;;;;;;;;;5056140;28;20135;-78
2021/10/12 14:44:08;;;;;;;5.30;0.70;;;;;;;;;;5052781;28;20503;-78
2021/10/12 14:46:35;;;;;;;1.83;0.82;;;;;;;;;;5048463;28;20037;-78
2021/10/12 14:49:03;;;;;;;2.55;0.35;;;;;;;;;;5046871;28;20055;-78
2021/10/12 14:51:31;;;;;;;4.18;0.63;;;;;;;;;;5046694;28;20628;-78
2021/10/12 14:54:00;;;;;;;1.65;0.30;;;;;;;;;;5045140;28;20773;-78
2021/10/12 14:56:29;;;;;;;1.25;0.45;;;;;;;;;;5046836;28;20128;-78